createdAt,value
2018-03-15T00:00:14.325Z,14.47
2018-03-15T00:02:42.476Z,13.27
2018-03-15T00:05:11.363Z,16.30
2018-03-15T00:07:40.260Z,15.40
2018-03-15T00:10:09.140Z,12.63
2018-03-15T00:12:37.274Z,14.13
2018-03-15T00:15:05.378Z,13.03
2018-03-15T00:17:33.538Z,16.10
2018-03-15T00:20:01.698Z,18.23
2018-03-15T00:22:32.566Z,12.40
2018-03-15T00:25:00.680Z,10.87
2018-03-15T00:27:28.818Z,14.80
2018-03-15T00:29:57.692Z,16.17
2018-03-15T00:32:25.845Z,18.90
2018-03-15T00:34:53.960Z,20.80
2018-03-15T00:37:22.860Z,23.30
2018-03-15T00:39:51.731Z,19.17
2018-03-15T00:42:19.877Z,16.27
2018-03-15T00:44:47.985Z,25.80
2018-03-15T00:47:16.894Z,23.13
2018-03-15T00:49:45.013Z,15.80
2018-03-15T00:52:14.745Z,14.80
2018-03-15T00:54:42.861Z,16.50
2018-03-15T00:57:11.004Z,19.03
2018-03-15T00:59:39.902Z,21.43
2018-03-15T01:02:08.073Z,18.37
2018-03-15T01:04:36.956Z,14.63
2018-03-15T01:07:05.107Z,15.97
2018-03-15T01:09:33.211Z,17.13
2018-03-15T01:12:03.095Z,14.83
2018-03-15T01:14:31.220Z,15.03
2018-03-15T01:16:59.370Z,14.53
2018-03-15T01:19:28.253Z,18.37
2018-03-15T01:21:56.396Z,15.90
2018-03-15T01:24:24.533Z,18.67
2018-03-15T01:26:52.642Z,15.20
2018-03-15T01:29:20.766Z,12.50
2018-03-15T01:31:48.885Z,16.30
2018-03-15T01:34:17.018Z,15.30
2018-03-15T01:36:45.131Z,18.50
2018-03-15T01:39:13.273Z,19.13
2018-03-15T01:41:41.384Z,14.40
2018-03-15T01:44:09.513Z,17.50
2018-03-15T01:46:37.623Z,15.90
2018-03-15T01:49:06.565Z,18.43
2018-03-15T01:51:35.581Z,19.63
2018-03-15T01:54:03.729Z,16.13
2018-03-15T01:56:32.617Z,22.13
2018-03-15T01:59:01.545Z,16.30
2018-03-15T02:01:29.685Z,17.90
2018-03-15T02:03:58.598Z,14.50
2018-03-15T02:06:26.764Z,16.90
2018-03-15T02:08:54.902Z,16.13
2018-03-15T02:11:23.022Z,17.87
2018-03-15T02:13:51.222Z,21.03
2018-03-15T02:16:19.336Z,20.03
2018-03-15T02:18:48.232Z,17.70
2018-03-15T02:21:17.104Z,19.40
2018-03-15T02:23:45.265Z,21.87
2018-03-15T02:26:13.400Z,18.23
2018-03-15T02:28:41.534Z,18.57
2018-03-15T02:31:10.418Z,22.10
2018-03-15T02:33:38.555Z,14.03
2018-03-15T02:36:06.687Z,20.20
2018-03-15T02:38:35.598Z,16.60
2018-03-15T02:41:03.710Z,18.73
2018-03-15T02:43:31.847Z,19.87
2018-03-15T02:46:01.093Z,18.70
2018-03-15T02:48:29.248Z,21.83
2018-03-15T02:50:57.369Z,19.07
2018-03-15T02:53:26.288Z,19.63
2018-03-15T02:55:54.413Z,20.30
2018-03-15T02:58:22.586Z,22.37
2018-03-15T03:00:50.711Z,24.67
2018-03-15T03:03:18.853Z,23.37
2018-03-15T03:05:47.733Z,30.10
2018-03-15T03:08:16.653Z,23.47
2018-03-15T03:10:44.781Z,28.57
2018-03-15T03:13:12.938Z,19.57
2018-03-15T03:15:41.968Z,21.40
2018-03-15T03:18:10.860Z,23.50
2018-03-15T03:20:39.750Z,18.73
2018-03-15T03:23:08.670Z,20.57
2018-03-15T03:25:36.779Z,24.07
2018-03-15T03:28:05.031Z,23.70
2018-03-15T03:30:33.158Z,23.50
2018-03-15T03:33:01.307Z,26.83
2018-03-15T03:35:29.419Z,25.30
2018-03-15T03:37:57.564Z,31.20
2018-03-15T03:40:25.685Z,25.87
2018-03-15T03:42:53.830Z,27.47
2018-03-15T03:45:22.717Z,25.73
2018-03-15T03:47:51.692Z,23.30
2018-03-15T03:50:19.833Z,27.73
2018-03-15T03:52:47.967Z,24.60
2018-03-15T03:55:16.855Z,24.70
2018-03-15T03:57:45.756Z,25.40
2018-03-15T04:00:13.872Z,30.10
2018-03-15T04:02:42.002Z,25.83
2018-03-15T04:05:10.166Z,26.23
2018-03-15T04:07:39.046Z,28.47
2018-03-15T04:10:07.960Z,23.63
2018-03-15T04:12:36.081Z,24.43
2018-03-15T04:15:04.224Z,29.83
2018-03-15T04:17:32.353Z,25.30
2018-03-15T04:20:00.500Z,27.93
2018-03-15T04:22:28.617Z,27.73
2018-03-15T04:24:57.526Z,26.50
2018-03-15T04:27:25.641Z,25.80
2018-03-15T04:29:53.785Z,26.47
2018-03-15T04:32:21.905Z,28.13
2018-03-15T04:34:50.044Z,32.80
2018-03-15T04:37:18.164Z,29.03
2018-03-15T04:39:47.085Z,34.33
2018-03-15T04:42:15.208Z,28.90
2018-03-15T04:44:43.381Z,22.10
2018-03-15T04:47:11.498Z,27.53
2018-03-15T04:49:39.654Z,25.87
2018-03-15T04:52:08.533Z,25.83
2018-03-15T04:54:36.686Z,29.23
2018-03-15T04:57:04.807Z,26.37
2018-03-15T04:59:32.961Z,25.87
2018-03-15T05:02:01.856Z,21.10
2018-03-15T05:04:30.771Z,21.67
2018-03-15T05:06:59.682Z,19.97
2018-03-15T05:09:27.828Z,21.67
2018-03-15T05:11:55.953Z,24.90
2018-03-15T05:14:24.100Z,26.43
2018-03-15T05:16:52.221Z,25.83
2018-03-15T05:19:20.355Z,36.43
2018-03-15T05:21:48.484Z,21.00
2018-03-15T05:24:17.393Z,25.77
2018-03-15T05:26:45.615Z,23.17
2018-03-15T05:29:14.538Z,27.33
2018-03-15T05:31:43.424Z,31.97
2018-03-15T05:34:12.338Z,25.20
2018-03-15T05:36:40.444Z,23.90
2018-03-15T05:39:08.594Z,24.23
2018-03-15T05:41:37.086Z,22.77
2018-03-15T05:44:05.438Z,23.17
2018-03-15T05:46:33.757Z,23.83
2018-03-15T05:49:01.964Z,23.17
2018-03-15T05:51:30.862Z,28.47
2018-03-15T05:53:59.779Z,23.23
2018-03-15T05:56:27.965Z,18.30
2018-03-15T05:58:56.165Z,33.53
2018-03-15T06:01:24.610Z,23.53
2018-03-15T06:03:55.259Z,23.20
2018-03-15T06:06:23.463Z,27.63
2018-03-15T06:08:52.376Z,32.37
2018-03-15T06:11:21.419Z,22.10
2018-03-15T06:13:49.600Z,21.20
2018-03-15T06:16:17.737Z,21.37
2018-03-15T06:18:46.646Z,21.77
2018-03-15T06:21:14.773Z,26.20
2018-03-15T06:23:42.921Z,17.70
2018-03-15T06:26:11.239Z,23.73
2018-03-15T06:28:39.447Z,20.87
2018-03-15T06:31:07.630Z,22.63
2018-03-15T06:33:35.786Z,33.00
2018-03-15T06:36:03.920Z,19.70
2018-03-15T06:38:32.072Z,23.20
2018-03-15T06:41:00.196Z,23.93
2018-03-15T06:43:29.086Z,27.93
2018-03-15T06:45:57.992Z,25.03
2018-03-15T06:48:27.985Z,25.83
2018-03-15T06:50:57.392Z,24.90
2018-03-15T06:53:25.585Z,26.17
2018-03-15T06:55:53.833Z,26.23
2018-03-15T06:58:21.964Z,24.40
2018-03-15T07:00:50.119Z,25.37
2018-03-15T07:03:18.250Z,25.30
2018-03-15T07:05:46.402Z,25.90
2018-03-15T07:08:14.520Z,24.53
2018-03-15T07:10:43.436Z,30.13
2018-03-15T07:13:11.573Z,25.93
2018-03-15T07:15:39.736Z,26.10
2018-03-15T07:18:07.950Z,25.60
2018-03-15T07:20:36.105Z,23.90
2018-03-15T07:23:04.997Z,24.43
2018-03-15T07:25:33.925Z,21.90
2018-03-15T07:28:02.049Z,24.17
2018-03-15T07:30:30.233Z,25.80
2018-03-15T07:32:58.345Z,25.80
2018-03-15T07:35:26.517Z,24.13
2018-03-15T07:37:54.644Z,20.87
2018-03-15T07:40:22.793Z,22.90
2018-03-15T07:42:50.927Z,20.40
2018-03-15T07:45:19.920Z,24.90
2018-03-15T07:47:48.784Z,20.93
2018-03-15T07:50:17.700Z,20.97
2018-03-15T07:52:45.825Z,20.33
2018-03-15T07:55:13.996Z,18.90
2018-03-15T07:57:42.121Z,20.40
2018-03-15T08:00:10.260Z,21.30
2018-03-15T08:02:38.398Z,17.30
2018-03-15T08:05:06.540Z,18.90
2018-03-15T08:07:34.670Z,19.43
2018-03-15T08:10:02.823Z,20.90
2018-03-15T08:12:30.953Z,17.07
2018-03-15T08:14:59.108Z,20.10
2018-03-15T08:17:27.997Z,19.27
2018-03-15T08:19:56.909Z,17.70
2018-03-15T08:22:25.041Z,17.13
2018-03-15T08:24:53.190Z,21.20
2018-03-15T08:35:15.420Z,19.63
2018-03-15T08:37:43.540Z,17.30
2018-03-15T08:40:11.755Z,19.07
2018-03-15T08:42:40.419Z,20.00
2018-03-15T08:45:08.567Z,17.53
2018-03-15T08:47:36.682Z,20.23
2018-03-15T08:50:04.868Z,20.10
2018-03-15T08:52:32.978Z,20.50
2018-03-15T08:55:01.106Z,21.37
2018-03-15T08:57:29.214Z,21.00
2018-03-15T08:59:57.359Z,19.07
2018-03-15T09:02:25.470Z,22.67
2018-03-15T09:04:53.638Z,19.57
2018-03-15T09:07:21.746Z,21.43
2018-03-15T09:09:49.878Z,21.07
2018-03-15T09:12:17.991Z,24.37
2018-03-15T09:14:46.161Z,22.03
2018-03-15T09:17:14.271Z,20.70
2018-03-15T09:19:42.412Z,21.03
2018-03-15T09:22:10.515Z,22.50
2018-03-15T09:24:38.652Z,20.33
2018-03-15T09:27:06.779Z,23.10
2018-03-15T09:29:36.271Z,24.10
2018-03-15T09:32:04.385Z,25.53
2018-03-15T09:34:32.537Z,25.43
2018-03-15T09:37:00.658Z,22.37
2018-03-15T09:39:29.559Z,24.50
2018-03-15T09:41:57.692Z,25.70
2018-03-15T09:44:25.837Z,25.43
2018-03-15T09:46:53.992Z,22.70
2018-03-15T09:49:22.134Z,25.60
2018-03-15T09:51:50.274Z,24.07
2018-03-15T09:54:18.410Z,25.17
2018-03-15T09:56:46.571Z,26.73
2018-03-15T09:59:14.738Z,24.67
2018-03-15T10:01:43.650Z,25.40
2018-03-15T10:04:11.758Z,27.30
2018-03-15T10:06:40.709Z,24.67
2018-03-15T10:09:08.865Z,24.23
2018-03-15T10:11:37.778Z,26.40
2018-03-15T10:14:05.912Z,24.63
2018-03-15T10:16:34.068Z,24.37
2018-03-15T10:19:02.583Z,24.63
2018-03-15T10:21:31.514Z,35.20
2018-03-15T10:24:00.990Z,27.67
2018-03-15T10:26:29.161Z,27.80
2018-03-15T10:28:58.062Z,27.70
2018-03-15T10:31:26.968Z,28.20
2018-03-15T10:33:55.102Z,28.10
2018-03-15T10:36:24.014Z,30.03
2018-03-15T10:38:52.142Z,32.30
2018-03-15T10:41:20.739Z,31.27
2018-03-15T10:43:48.875Z,28.20
2018-03-15T10:46:17.029Z,53.17
2018-03-15T10:48:46.530Z,31.77
2018-03-15T10:51:14.695Z,29.40
2018-03-15T10:53:42.837Z,29.43
2018-03-15T10:56:11.004Z,30.50
2018-03-15T10:58:39.145Z,28.00
2018-03-15T11:01:08.392Z,32.57
2018-03-15T11:03:43.071Z,32.60
2018-03-15T11:06:11.240Z,33.67
2018-03-15T11:08:39.370Z,30.63
2018-03-15T11:11:08.298Z,27.20
2018-03-15T11:13:36.496Z,31.77
2018-03-15T11:16:04.653Z,30.23
2018-03-15T11:18:32.790Z,27.23
2018-03-15T11:21:01.703Z,32.57
2018-03-15T11:23:29.842Z,27.20
2018-03-15T11:25:58.658Z,30.50
2018-03-15T11:28:26.801Z,30.17
2018-03-15T11:30:54.944Z,26.87
2018-03-15T11:33:23.586Z,26.47
2018-03-15T11:35:51.754Z,27.80
2018-03-15T11:38:20.655Z,25.90
2018-03-15T11:40:49.574Z,28.67
2018-03-15T11:43:17.729Z,29.67
2018-03-15T11:45:45.892Z,36.80
2018-03-15T11:48:14.799Z,30.43
2018-03-15T11:50:42.998Z,28.17
2018-03-15T11:53:11.084Z,30.37
2018-03-15T11:55:39.249Z,32.33
2018-03-15T11:58:07.375Z,28.20
2018-03-15T12:00:35.584Z,35.73
2018-03-15T12:03:03.745Z,31.43
2018-03-15T12:05:31.898Z,32.17
2018-03-15T12:08:00.032Z,35.13
2018-03-15T12:10:28.212Z,32.17
2018-03-15T12:12:56.348Z,33.47
2018-03-15T12:15:24.622Z,33.90
2018-03-15T12:17:52.762Z,36.17
2018-03-15T12:20:20.897Z,33.70
2018-03-15T12:22:49.024Z,36.97
2018-03-15T12:25:17.135Z,40.87
2018-03-15T12:27:45.269Z,34.20
2018-03-15T12:30:13.375Z,36.13
2018-03-15T12:32:41.918Z,35.03
2018-03-15T12:35:10.027Z,32.13
2018-03-15T12:37:38.183Z,33.07
2018-03-15T12:40:07.067Z,32.10
2018-03-15T12:42:35.415Z,33.43
2018-03-15T12:45:06.862Z,32.97
2018-03-15T12:47:38.560Z,34.27
2018-03-15T12:50:06.673Z,35.17
2018-03-15T12:52:34.812Z,31.13
2018-03-15T12:55:03.700Z,30.40
2018-03-15T12:57:32.618Z,32.90
2018-03-15T13:00:00.733Z,28.27
2018-03-15T13:02:28.864Z,30.77
2018-03-15T13:04:57.061Z,27.83
2018-03-15T13:07:25.208Z,29.00
2018-03-15T13:09:53.319Z,30.17
2018-03-15T13:12:21.476Z,33.87
2018-03-15T13:14:49.600Z,31.23
2018-03-15T13:17:18.520Z,32.90
2018-03-15T13:19:47.877Z,31.30
2018-03-15T13:22:16.099Z,34.43
2018-03-15T13:24:46.880Z,33.23
2018-03-15T13:27:15.883Z,30.87
2018-03-15T13:29:44.072Z,34.73
2018-03-15T13:32:15.378Z,34.20
2018-03-15T13:34:47.259Z,33.77
2018-03-15T13:37:21.047Z,31.23
2018-03-15T13:39:49.166Z,35.13
2018-03-15T13:42:18.081Z,30.03
2018-03-15T13:44:46.204Z,34.50
2018-03-15T13:47:14.323Z,34.77
2018-03-15T13:49:42.474Z,37.50
2018-03-15T13:52:11.363Z,37.53
2018-03-15T13:54:40.259Z,37.10
2018-03-15T13:57:09.152Z,35.93
2018-03-15T13:59:38.071Z,39.80
2018-03-15T14:02:06.186Z,37.37
2018-03-15T14:04:34.328Z,35.30
2018-03-15T14:07:02.520Z,39.60
2018-03-15T14:09:30.673Z,35.37
2018-03-15T14:11:58.793Z,53.47
2018-03-15T14:14:26.978Z,36.47
2018-03-15T14:16:55.162Z,37.37
2018-03-15T14:19:24.071Z,35.80
2018-03-15T14:21:52.186Z,43.60
2018-03-15T14:24:20.323Z,36.20
2018-03-15T14:26:48.445Z,36.40
2018-03-15T14:29:17.595Z,36.27
2018-03-15T14:31:45.692Z,41.30
2018-03-15T14:34:13.868Z,36.80
2018-03-15T14:36:41.985Z,40.20
2018-03-15T14:39:10.156Z,39.27
2018-03-15T14:41:38.263Z,37.67
2018-03-15T14:44:06.421Z,43.73
2018-03-15T14:46:35.331Z,38.63
2018-03-15T14:49:04.236Z,38.47
2018-03-15T14:51:32.374Z,41.47
2018-03-15T14:54:00.502Z,39.07
2018-03-15T14:56:28.652Z,40.03
2018-03-15T14:58:56.800Z,43.03
2018-03-15T15:01:25.671Z,40.87
2018-03-15T15:03:54.882Z,40.30
2018-03-15T15:06:23.193Z,37.07
2018-03-15T15:08:51.327Z,45.13
2018-03-15T15:11:19.439Z,40.23
2018-03-15T15:13:48.339Z,45.57
2018-03-15T15:16:16.458Z,41.70
2018-03-15T15:18:44.570Z,42.33
2018-03-15T15:21:13.478Z,44.40
2018-03-15T15:23:41.607Z,40.60
2018-03-15T15:26:09.736Z,36.50
2018-03-15T15:28:37.860Z,40.17
2018-03-15T15:31:05.983Z,39.20
2018-03-15T15:33:34.087Z,46.97
2018-03-15T15:36:02.269Z,70.93
2018-03-15T15:38:30.543Z,41.87
2018-03-15T15:40:58.684Z,40.33
2018-03-15T15:43:26.813Z,44.00
2018-03-15T15:45:54.944Z,44.00
2018-03-15T15:48:23.071Z,44.73
2018-03-15T15:50:52.375Z,45.70
2018-03-15T15:53:21.259Z,47.30
2018-03-15T15:55:49.401Z,44.10
2018-03-15T15:58:17.945Z,39.70
2018-03-15T16:00:46.183Z,42.83
2018-03-15T16:03:14.301Z,42.57
2018-03-15T16:05:42.438Z,42.30
2018-03-15T16:08:11.313Z,40.17
2018-03-15T16:10:39.457Z,38.97
2018-03-15T16:13:07.570Z,44.07
2018-03-15T16:15:35.715Z,42.33
2018-03-15T16:18:03.834Z,36.83
2018-03-15T16:20:32.786Z,44.23
2018-03-15T16:23:00.893Z,44.40
2018-03-15T16:25:29.020Z,38.90
2018-03-15T16:27:57.137Z,38.83
2018-03-15T16:30:25.273Z,46.13
2018-03-15T16:32:54.146Z,41.93
2018-03-15T16:35:22.288Z,39.20
2018-03-15T16:37:51.164Z,39.10
2018-03-15T16:40:20.165Z,45.03
2018-03-15T16:42:49.041Z,39.13
2018-03-15T16:45:17.175Z,42.97
2018-03-15T16:47:45.295Z,38.27
2018-03-15T16:50:13.433Z,40.10
2018-03-15T16:52:41.541Z,37.50
2018-03-15T16:55:10.422Z,37.13
2018-03-15T16:57:38.566Z,37.63
2018-03-15T17:00:06.707Z,39.60
2018-03-15T17:02:35.180Z,40.17
2018-03-15T17:05:05.721Z,38.30
2018-03-15T17:07:33.859Z,44.00
2018-03-15T17:10:01.981Z,36.20
2018-03-15T17:12:30.115Z,39.57
2018-03-15T17:14:58.222Z,42.90
2018-03-15T17:17:26.382Z,36.37
2018-03-15T17:19:55.286Z,42.20
2018-03-15T17:22:24.175Z,49.47
2018-03-15T17:24:52.310Z,49.40
2018-03-15T17:27:21.039Z,43.47
2018-03-15T17:29:49.714Z,50.73
2018-03-15T17:32:18.616Z,42.93
2018-03-15T17:34:47.497Z,42.63
2018-03-15T17:37:16.436Z,51.23
2018-03-15T17:39:44.552Z,71.97
2018-03-15T17:42:12.686Z,54.70
2018-03-15T17:44:40.809Z,57.10
2018-03-15T17:47:09.710Z,44.97
2018-03-15T17:49:38.592Z,52.13
2018-03-15T17:52:07.487Z,54.23
2018-03-15T17:54:36.368Z,52.57
2018-03-15T17:57:04.503Z,58.10
2018-03-15T17:59:32.744Z,55.37
2018-03-15T18:02:00.941Z,52.10
2018-03-15T18:04:29.260Z,51.33
2018-03-15T18:06:57.459Z,56.73
2018-03-15T18:09:26.334Z,47.47
2018-03-15T18:11:54.965Z,51.80
2018-03-15T18:14:23.202Z,50.07
2018-03-15T18:16:52.097Z,48.13
2018-03-15T18:19:20.966Z,54.17
2018-03-15T18:21:49.083Z,53.17
2018-03-15T18:24:17.216Z,54.07
2018-03-15T18:26:45.382Z,52.63
2018-03-15T18:29:13.531Z,57.80
2018-03-15T18:31:42.047Z,59.00
2018-03-15T18:34:10.184Z,57.40
2018-03-15T18:36:38.292Z,47.77
2018-03-15T18:39:06.439Z,54.97
2018-03-15T18:41:34.556Z,50.00
2018-03-15T18:44:03.459Z,53.13
2018-03-15T18:46:31.563Z,46.23
2018-03-15T18:48:59.705Z,56.40
2018-03-15T18:51:27.828Z,55.77
2018-03-15T18:53:56.012Z,81.67
2018-03-15T18:56:24.121Z,55.70
2018-03-15T18:58:52.272Z,51.70
2018-03-15T19:01:21.152Z,53.53
2018-03-15T19:03:49.278Z,56.47
2018-03-15T19:06:17.381Z,56.07
2018-03-15T19:08:46.272Z,49.83
2018-03-15T19:11:14.388Z,53.97
2018-03-15T19:13:43.290Z,62.37
2018-03-15T19:16:11.413Z,53.80
2018-03-15T19:18:39.531Z,49.13
2018-03-15T19:21:07.652Z,56.10
2018-03-15T19:23:35.783Z,52.60
2018-03-15T19:26:03.904Z,61.27
2018-03-15T19:28:32.036Z,50.87
2018-03-15T19:31:00.158Z,58.13
2018-03-15T19:33:28.293Z,58.20
2018-03-15T19:35:56.396Z,57.60
2018-03-15T19:38:24.535Z,58.23
2018-03-15T19:40:52.689Z,58.30
2018-03-15T19:43:21.580Z,52.50
2018-03-15T19:45:49.701Z,58.63
2018-03-15T19:48:17.822Z,59.97
2018-03-15T19:50:46.695Z,62.20
2018-03-15T19:53:14.838Z,58.77
2018-03-15T19:55:42.936Z,60.00
2018-03-15T19:58:11.077Z,61.40
2018-03-15T20:00:39.179Z,51.90
2018-03-15T20:03:07.375Z,64.60
2018-03-15T20:05:36.252Z,57.30
2018-03-15T20:08:04.444Z,60.33
2018-03-15T20:10:33.306Z,59.80
2018-03-15T20:13:01.453Z,64.63
2018-03-15T20:15:35.836Z,59.50
2018-03-15T20:18:03.972Z,52.23
2018-03-15T20:20:32.082Z,66.93
2018-03-15T20:23:06.696Z,63.60
2018-03-15T20:25:35.574Z,61.27
2018-03-15T20:28:10.158Z,58.60
2018-03-15T20:30:38.284Z,63.57
2018-03-15T20:33:13.055Z,68.87
2018-03-15T20:35:42.028Z,63.53
2018-03-15T20:38:10.382Z,64.97
2018-03-15T20:40:45.057Z,66.50
2018-03-15T20:43:13.159Z,65.30
2018-03-15T20:45:47.114Z,64.80
2018-03-15T20:48:20.963Z,66.70
2018-03-15T20:50:49.099Z,71.20
2018-03-15T20:53:17.208Z,65.27
2018-03-15T20:55:45.401Z,70.57
2018-03-15T20:58:13.616Z,70.13
2018-03-15T21:00:41.787Z,72.20
2018-03-15T21:03:09.889Z,72.73
2018-03-15T21:05:38.028Z,70.53
2018-03-15T21:08:06.143Z,77.67
2018-03-15T21:10:34.279Z,73.80
2018-03-15T21:13:02.395Z,74.37
2018-03-15T21:15:30.537Z,78.23
2018-03-15T21:17:58.646Z,71.07
2018-03-15T21:20:26.774Z,77.63
2018-03-15T21:22:54.891Z,77.87
2018-03-15T21:25:23.023Z,73.50
2018-03-15T21:27:51.147Z,71.00
2018-03-15T21:30:19.297Z,85.33
2018-03-15T21:32:47.407Z,76.77
2018-03-15T21:35:15.545Z,71.40
2018-03-15T21:37:43.676Z,83.40
2018-03-15T21:40:11.802Z,78.07
2018-03-15T21:42:39.903Z,78.60
2018-03-15T21:45:08.810Z,73.83
2018-03-15T21:47:37.750Z,89.60
2018-03-15T21:50:05.893Z,79.93
2018-03-15T21:52:34.008Z,77.00
2018-03-15T21:55:02.142Z,83.07
2018-03-15T21:57:30.263Z,92.20
2018-03-15T21:59:58.418Z,79.47
2018-03-15T22:02:26.533Z,81.47
2018-03-15T22:04:55.477Z,84.03
2018-03-15T22:07:23.590Z,79.80
2018-03-15T22:09:51.710Z,77.33
2018-03-15T22:12:19.824Z,93.13
2018-03-15T22:14:47.961Z,86.80
2018-03-15T22:17:16.088Z,80.63
2018-03-15T22:19:45.920Z,83.50
2018-03-15T22:22:14.035Z,75.00
2018-03-15T22:24:42.164Z,81.47
2018-03-15T22:27:10.288Z,77.43
2018-03-15T22:29:38.415Z,83.07
2018-03-15T22:32:06.522Z,82.97
2018-03-15T22:34:34.657Z,88.00
2018-03-15T22:37:02.770Z,83.47
2018-03-15T22:39:30.879Z,79.43
2018-03-15T22:41:59.779Z,79.97
2018-03-15T22:44:28.660Z,73.37
2018-03-15T22:46:57.553Z,86.00
2018-03-15T22:49:25.672Z,94.23
2018-03-15T22:51:53.797Z,83.50
2018-03-15T22:54:22.689Z,94.63
2018-03-15T22:56:50.836Z,82.00
2018-03-15T22:59:18.945Z,86.20
2018-03-15T23:01:47.833Z,78.93
2018-03-15T23:04:16.721Z,94.87
2018-03-15T23:06:45.632Z,83.47
2018-03-15T23:09:13.743Z,86.33
2018-03-15T23:11:41.893Z,104.60
2018-03-15T23:14:10.867Z,93.20
2018-03-15T23:16:38.995Z,92.87
2018-03-15T23:19:07.942Z,83.37
2018-03-15T23:21:36.845Z,91.83
2018-03-15T23:24:05.000Z,99.20
2018-03-15T23:26:33.912Z,92.17
2018-03-15T23:29:02.040Z,94.80
2018-03-15T23:31:30.174Z,99.60
2018-03-15T23:33:58.285Z,89.27
2018-03-15T23:36:26.422Z,100.10
2018-03-15T23:38:54.540Z,92.43
2018-03-15T23:41:22.688Z,96.10
2018-03-15T23:43:50.817Z,87.00
2018-03-15T23:46:19.016Z,97.80
2018-03-15T23:48:47.118Z,105.43
2018-03-15T23:51:15.254Z,101.50
2018-03-15T23:53:43.361Z,94.03
2018-03-15T23:56:11.491Z,88.67
2018-03-15T23:58:39.604Z,95.00
